Wyndham, Australia
Current Conditions -  °F | °C
As of 1:30 PM on Thursday 27 Nov 2014 (Local Time) from YPKU Reporting Station
Clear Clear  
Wind Chill: 93°   Ceiling: Unl
Heat Index: 96°   Visibility: 6mi
Dew Point: 66°   Wind: 9mph
Humidity: 41%   Direction: 340°NNW
Pressure: 29.74"   Gusts: NA
Location:  15.48°S, 128.12°E
Report Text: YPKU 270530Z AUTO 34008KT 9999 // NCD 34/19 Q1007
Loading
Personal Weather Stations






























Interactive Weather Map New forecast layout! Learn more

10-Day Weather Forecast

Advertisements
Track Severe Weather on mobile